Time;durP1;ratioP1;P1;durP2;ratioP2;P2;SDS_P1;SDS_P2;PMS_P1;PMS_P2;Temp;Humidity;BMP_temperature;BMP_pressure;BME280_temperature;BME280_humidity;BME280_pressure;Samples;Min_cycle;Max_cycle;Signal;HPM_P1;HPM_P2
2022/01/27 00:00:33;;;;;;;;;;;1.80;95.80;;;1.29;100.00;100504.59;5095685;28;20377;-57
2022/01/27 00:05:51;;;;;;;;;;;1.90;95.80;;;1.03;100.00;100465.19;5095642;28;20350;-56
2022/01/27 00:08:22;;;;;;;;;;;1.90;95.60;;;1.34;100.00;100513.81;5078731;28;19920;-57
2022/01/27 00:13:15;;;;;;;;;;;1.80;95.70;;;1.25;100.00;100501.25;5095392;28;19920;-57
2022/01/27 00:15:49;;;;;;;;;;;1.80;95.60;;;1.27;100.00;100506.31;5077792;28;19920;-57
2022/01/27 00:18:17;;;;;;;;;;;1.80;95.70;;;1.01;100.00;100468.59;5095018;28;20345;-57
2022/01/27 00:20:44;;;;;;;;;;;1.80;95.70;;;1.26;100.00;100497.00;5095555;28;20292;-57
2022/01/27 00:23:10;;;;;;;;;;;1.80;95.80;;;1.31;100.00;100497.78;5077367;28;19953;-57
2022/01/27 00:25:36;;;;;;;;;;;1.80;95.80;;;1.28;100.00;100485.97;5077413;28;19916;-57
2022/01/27 00:28:02;;;;;;;;;;;1.80;95.80;;;0.92;100.00;100451.81;5095125;28;20292;-57
2022/01/27 00:30:27;;;;;;;;;;;1.80;95.90;;;1.30;100.00;100491.03;5095069;28;19924;-57
2022/01/27 00:32:53;;;;;;;;;;;1.80;95.80;;;0.98;100.00;100441.56;5095839;28;20349;-59
2022/01/27 00:35:19;;;;;;;;;;;1.80;96.20;;;1.07;100.00;100451.56;5076422;28;19920;-59
2022/01/27 00:37:45;;;;;;;;;;;1.80;95.80;;;1.24;100.00;100484.31;5095229;28;20373;-58
2022/01/27 00:40:12;;;;;;;;;;;1.80;95.90;;;1.00;100.00;100439.81;5095219;28;19926;-58
2022/01/27 00:42:39;;;;;;;;;;;1.80;95.90;;;1.20;100.00;100476.78;5077158;28;19921;-56
2022/01/27 00:45:05;;;;;;;;;;;1.80;96.00;;;1.18;100.00;100494.59;5077203;28;20353;-58
2022/01/27 00:47:30;;;;;;;;;;;1.70;95.80;;;1.20;100.00;100495.41;5076758;28;20001;-56
2022/01/27 00:49:56;;;;;;;;;;;1.80;95.90;;;0.87;100.00;100471.38;5094924;28;20314;-56
2022/01/27 00:52:57;;;;;;;;;;;1.70;95.80;;;0.97;100.00;100485.63;5094700;28;19916;-56
2022/01/27 00:55:15;;;;;;;;;;;1.70;95.70;;;1.32;100.00;100518.06;5090482;28;20250;-57
2022/01/27 01:00:08;;;;;;;;;;;1.80;96.00;;;1.24;100.00;100499.56;5094351;28;20361;-56
2022/01/27 01:07:37;;;;;;;;;;;1.80;95.90;;;1.19;100.00;100488.66;5094349;28;19920;-58
2022/01/27 01:10:44;;;;;;;;;;;1.80;95.70;;;1.13;100.00;100494.69;5094636;28;19928;-58
2022/01/27 01:14:22;;;;;;;;;;;1.80;95.60;;;1.26;100.00;100495.31;5094045;28;19923;-56
2022/01/27 01:15:46;;;;;;;;;;;1.80;95.70;;;1.12;100.00;100477.75;5080745;28;20003;-58
2022/01/27 01:36:44;;;;;;;;;;;1.80;95.20;;;0.93;100.00;100423.00;5094015;28;19981;-57
2022/01/27 01:39:12;;;;;;;;;;;1.80;95.20;;;0.75;100.00;100410.59;5076259;28;19927;-57
2022/01/27 01:41:38;;;;;;;;;;;1.80;95.20;;;1.25;100.00;100491.09;5093879;28;20365;-57
2022/01/27 01:44:04;;;;;;;;;;;1.80;95.00;;;1.17;100.00;100477.66;5093770;28;19963;-57
2022/01/27 01:46:29;;;;;;;;;;;1.70;95.10;;;1.31;100.00;100480.84;5074711;28;20297;-57
2022/01/27 01:48:55;;;;;;;;;;;1.80;95.40;;;0.98;100.00;100430.56;5094098;28;19950;-57
2022/01/27 01:51:28;;;;;;;;;;;1.70;95.50;;;1.27;100.00;100475.81;5093511;28;19920;-57
2022/01/27 01:53:54;;;;;;;;;;;1.80;95.60;;;1.29;100.00;100454.59;5094002;28;19927;-57
2022/01/27 01:56:20;;;;;;;;;;;1.70;95.70;;;1.33;100.00;100461.28;5093511;28;19924;-57
2022/01/27 01:58:46;;;;;;;;;;;1.80;95.90;;;1.43;100.00;100455.19;5093568;28;19928;-57
2022/01/27 02:01:12;;;;;;;;;;;1.80;95.90;;;0.76;100.00;100339.44;5075709;28;19924;-57
2022/01/27 02:03:37;;;;;;;;;;;1.80;95.80;;;1.14;100.00;100401.47;5093620;28;19985;-57
2022/01/27 02:06:03;;;;;;;;;;;1.80;95.70;;;1.12;100.00;100423.53;5093856;28;19931;-57
2022/01/27 02:19:09;;;;;;;;;;;1.70;95.10;;;1.10;100.00;100408.31;5093459;28;19961;-57
2022/01/27 02:22:03;;;;;;;4.85;3.55;;;1.70;95.30;;;1.12;100.00;100433.69;5093040;28;19920;-57
2022/01/27 02:24:32;;;;;;;4.38;3.63;;;1.70;95.50;;;1.18;100.00;100456.47;5041460;28;20233;-57
2022/01/27 02:26:58;;;;;;;7.70;3.65;;;1.70;95.60;;;1.21;100.00;100447.97;5055174;28;20534;-57
2022/01/27 02:29:24;;;;;;;;;;;1.70;95.70;;;1.19;100.00;100447.97;5038538;28;20190;-57
2022/01/27 02:31:51;;;;;;;;;;;1.70;95.80;;;1.00;100.00;100444.91;5073624;28;19917;-57
2022/01/27 02:34:17;;;;;;;;;;;1.70;96.00;;;1.18;100.00;100448.00;5073269;28;19916;-57
2022/01/27 02:36:43;;;;;;;;;;;1.70;96.00;;;1.24;100.00;100445.34;5073062;28;20304;-57
2022/01/27 02:39:10;;;;;;;;;;;1.70;96.00;;;1.21;100.00;100441.19;5055535;28;19923;-57
2022/01/27 02:41:42;;;;;;;;;;;1.70;95.90;;;1.21;100.00;100441.19;5073031;28;19920;-57
2022/01/27 02:44:08;;;;;;;;;;;1.70;95.90;;;1.18;100.00;100448.84;5073399;28;19999;-57
2022/01/27 02:46:36;;;;;;;;;;;1.80;95.90;;;1.00;100.00;100406.78;5055093;28;19951;-57
2022/01/27 02:49:02;;;;;;;;;;;1.80;96.00;;;1.25;100.00;100452.94;5055397;28;19912;-57
2022/01/27 02:51:28;;;;;;;;;;;1.80;96.00;;;1.18;100.00;100463.25;5072577;28;19916;-57
2022/01/27 02:53:56;;;;;;;;;;;1.70;96.00;;;1.27;100.00;100463.94;5073207;28;19916;-57
2022/01/27 02:56:22;;;;;;;;;;;1.70;96.20;;;1.06;100.00;100475.31;5072858;28;20373;-57
2022/01/27 02:58:47;;;;;;;;;;;1.70;96.00;;;1.12;100.00;100475.22;5074685;28;19923;-57
2022/01/27 03:01:18;;;;;;;;;;;1.70;96.00;;;0.80;100.00;100426.63;5076784;28;19927;-57
2022/01/27 03:03:44;;;;;;;;;;;1.70;96.00;;;1.08;100.00;100465.09;5076588;28;19938;-57
2022/01/27 03:06:09;;;;;;;;;;;1.70;96.10;;;0.97;100.00;100472.91;5058914;28;20296;-57
2022/01/27 03:08:35;;;;;;;;;;;1.70;96.20;;;1.18;100.00;100466.63;5076483;28;19917;-57
2022/01/27 03:11:07;;;;;;;;;;;1.70;96.30;;;1.29;100.00;100462.22;5076416;28;20293;-57
2022/01/27 03:13:33;;;;;;;;;;;1.70;96.40;;;1.27;100.00;100463.09;5076294;28;20333;-57
2022/01/27 03:15:58;;;;;;;;;;;1.70;96.20;;;1.22;100.00;100449.63;5076380;28;19917;-57
2022/01/27 03:18:24;;;;;;;;;;;1.80;96.00;;;1.20;100.00;100459.81;5058283;28;19923;-57
2022/01/27 03:20:50;;;;;;;;;;;1.70;95.70;;;1.10;100.00;100454.06;5076768;28;19961;-57
2022/01/27 03:23:15;;;;;;;;;;;1.70;95.60;;;1.24;100.00;100453.81;5076156;28;20402;-57
2022/01/27 03:25:41;;;;;;;;;;;1.70;95.50;;;1.15;100.00;100443.84;5076491;28;19920;-57
2022/01/27 03:28:09;;;;;;;;;;;1.70;95.50;;;1.13;100.00;100446.38;5076249;28;19969;-57
2022/01/27 03:30:35;;;;;;;;;;;1.70;95.50;;;1.06;100.00;100416.88;5057926;28;19927;-57
2022/01/27 03:33:01;;;;;;;;;;;1.70;95.50;;;1.22;100.00;100442.84;5076324;28;19913;-57
2022/01/27 03:35:26;;;;;;;;;;;1.70;95.60;;;1.15;100.00;100434.47;5075654;28;19925;-57
2022/01/27 03:37:52;;;;;;;;;;;1.70;95.70;;;1.05;100.00;100427.91;5076211;28;20365;-57
2022/01/27 03:40:18;;;;;;;;;;;1.70;95.60;;;1.20;100.00;100439.50;5075835;28;20365;-57
2022/01/27 03:42:50;;;;;;;;;;;1.70;95.50;;;1.15;100.00;100428.59;5057681;28;19916;-57
2022/01/27 03:45:16;;;;;;;;;;;1.70;95.40;;;1.22;100.00;100427.59;5059241;28;19917;-56
2022/01/27 03:47:42;;;;;;;;;;;1.70;95.20;;;1.20;100.00;100425.94;5075788;28;19962;-57
2022/01/27 03:50:08;;;;;;;;;;;1.70;95.20;;;0.81;100.00;100363.94;5076023;28;19912;-57
2022/01/27 03:52:34;;;;;;;;;;;1.70;95.20;;;0.92;100.00;100403.53;5057893;28;19927;-57
2022/01/27 03:54:59;;;;;;;;;;;1.60;95.10;;;1.04;100.00;100420.28;5075809;28;20333;-57
2022/01/27 03:57:25;;;;;;;;;;;1.60;95.40;;;1.02;100.00;100401.69;5057803;28;19917;-57
2022/01/27 03:59:51;;;;;;;;;;;1.60;95.20;;;1.10;100.00;100404.94;5057596;28;19920;-57
2022/01/27 04:02:17;;;;;;;;;;;1.60;95.50;;;1.18;100.00;100407.34;5075646;28;20276;-57
2022/01/27 04:04:42;;;;;;;;;;;1.60;95.60;;;1.09;100.00;100411.72;5075101;28;19923;-57
2022/01/27 04:07:08;;;;;;;;;;;1.60;95.50;;;0.92;100.00;100372.22;5075626;28;19916;-57
2022/01/27 04:09:34;;;;;;;;;;;1.60;95.20;;;1.07;100.00;100387.22;5074423;28;19917;-57
2022/01/27 04:12:00;;;;;;;;;;;1.60;95.20;;;0.81;100.00;100348.72;5075733;28;19916;-57
2022/01/27 04:14:25;;;;;;;;;;;1.50;95.30;;;0.96;100.00;100387.38;5075124;28;19916;-60
2022/01/27 04:16:51;;;;;;;;;;;1.50;95.40;;;0.63;100.00;100343.06;5075732;28;19916;-57
2022/01/27 04:19:17;;;;;;;;;;;1.50;95.40;;;0.99;100.00;100383.97;5057561;28;19978;-57
2022/01/27 04:21:42;;;;;;;;;;;1.50;95.30;;;1.08;100.00;100386.31;5075082;28;19949;-57
2022/01/27 04:24:10;;;;;;;;;;;1.50;95.40;;;1.05;100.00;100392.31;5075725;28;20318;-56
2022/01/27 04:26:43;;;;;;;;;;;1.50;95.50;;;1.09;100.00;100393.94;5074912;28;19916;-57
2022/01/27 04:29:09;;;;;;;;;;;1.60;95.50;;;1.04;100.00;100402.50;5075303;28;19928;-57
2022/01/27 04:31:37;;;;;;;;;;;1.60;95.50;;;1.06;100.00;100406.72;5074352;28;19921;-57
2022/01/27 04:34:03;;;;;;;;;;;1.50;95.50;;;0.94;100.00;100403.50;5057572;28;19928;-57
2022/01/27 04:36:34;;;;;;;;;;;1.50;95.50;;;0.93;100.00;100401.84;5074824;28;20025;-57
2022/01/27 04:39:17;;;;;;;;;;;1.60;95.50;;;1.05;100.00;100411.81;5074997;28;19931;-57
2022/01/27 04:46:49;;;;;;;;;;;1.60;95.60;;;1.07;100.00;100398.19;5074664;28;20433;-57
2022/01/27 04:49:15;;;;;;;;;;;1.50;95.70;;;1.02;100.00;100378.81;5074907;28;20001;-57
2022/01/27 04:51:40;;;;;;;;;;;1.50;95.80;;;1.12;100.00;100395.59;5056345;28;20270;-57
2022/01/27 04:56:34;;;;;;;;;;;1.50;96.10;;;1.09;100.00;100403.25;5074383;28;19920;-57
2022/01/27 04:59:05;;;;;;;;;;;1.50;96.20;;;1.14;100.00;100394.69;5074330;28;19920;-57
2022/01/27 05:01:37;;;;;;;;;;;1.60;96.30;;;1.14;100.00;100392.16;5074332;28;19939;-57
2022/01/27 05:04:08;;;;;;;;;;;1.60;96.20;;;1.04;100.00;100370.31;5074496;28;20350;-57
2022/01/27 05:06:34;;;;;;;;;;;1.60;96.10;;;1.09;100.00;100373.59;5057288;28;19927;-57
2022/01/27 05:08:59;;;;;;;;;;;1.60;96.50;;;1.08;100.00;100371.06;5056537;28;20003;-57
2022/01/27 05:11:35;;;;;;;;;;;1.60;96.30;;;0.54;100.00;100315.28;5074312;28;19912;-57
2022/01/27 05:16:39;;;;;;;;;;;1.60;96.30;;;0.82;100.00;100330.91;5074114;28;19974;-57
2022/01/27 05:19:04;;;;;;;;;;;1.60;96.40;;;1.09;100.00;100362.59;5074410;28;20303;-57
2022/01/27 05:21:33;;;;;;;;;;;1.60;96.60;;;1.09;100.00;100367.66;5073801;28;19917;-58
2022/01/27 05:24:00;;;;;;;;;;;1.60;96.70;;;1.01;100.00;100364.44;5074073;28;19924;-57
2022/01/27 05:26:26;;;;;;;;;;;1.60;96.80;;;0.99;100.00;100379.69;5073849;28;19916;-57
2022/01/27 05:28:51;;;;;;;;;;;1.60;96.80;;;0.95;100.00;100374.72;5073841;28;19916;-57
2022/01/27 05:31:17;;;;;;;;;;;1.50;96.80;;;0.96;100.00;100368.75;5073613;28;19926;-57
2022/01/27 05:33:43;;;;;;;;;;;1.50;96.90;;;0.93;100.00;100367.09;5073682;28;20330;-57
2022/01/27 05:36:08;;;;;;;;;;;1.50;96.90;;;1.05;100.00;100384.69;5073995;28;19916;-57
2022/01/27 05:38:37;;;;;;;;;;;1.60;97.00;;;1.05;100.00;100394.03;5073457;28;19916;-57
2022/01/27 05:41:03;;;;;;;;;;;1.60;96.90;;;1.03;100.00;100383.03;5073509;28;19957;-57
2022/01/27 05:43:29;;;;;;;;;;;1.60;96.80;;;1.07;100.00;100380.41;5073832;28;20429;-57
2022/01/27 05:45:55;;;;;;;;;;;1.60;96.80;;;1.07;100.00;100375.31;5055286;28;19935;-57
2022/01/27 05:48:21;;;;;;;;;;;1.60;96.80;;;1.01;100.00;100389.84;5073434;28;20277;-57
2022/01/27 05:50:47;;;;;;;;;;;1.50;96.60;;;0.99;100.00;100383.97;5073559;28;19916;-57
2022/01/27 05:53:13;;;;;;;;;;;1.50;96.60;;;0.96;100.00;100367.06;5073704;28;19916;-57
2022/01/27 05:55:38;;;;;;;;;;;1.60;96.80;;;1.10;100.00;100387.97;5055676;28;19916;-57
2022/01/27 05:58:04;;;;;;;;;;;1.60;96.90;;;1.09;100.00;100393.09;5074013;28;19916;-57
2022/01/27 06:00:30;;;;;;;;;;;1.60;96.90;;;1.10;100.00;100405.78;5055469;28;19916;-56
2022/01/27 06:02:55;;;;;;;;;;;1.60;97.00;;;0.97;100.00;100373.81;5073343;28;19928;-57
2022/01/27 06:05:21;;;;;;;;;;;1.60;96.90;;;1.18;100.00;100403.09;5073661;28;19942;-57
2022/01/27 06:07:47;;;;;;;;;;;1.60;96.90;;;0.90;100.00;100351.94;5055409;28;19916;-57
2022/01/27 06:10:13;;;;;;;;;;;1.60;97.00;;;1.10;100.00;100395.59;5055528;28;19927;-57
2022/01/27 06:12:56;;;;;;;;;;;1.60;97.00;;;1.12;100.00;100387.97;5073480;28;19923;-56
2022/01/27 06:15:25;;;;;;;;;;;1.60;97.00;;;1.12;100.00;100386.25;5055402;28;19912;-56
2022/01/27 06:17:50;;;;;;;;;;;1.70;97.00;;;0.68;100.00;100320.97;5039321;28;19917;-56
2022/01/27 06:20:17;;;;;;;;;;;1.60;96.90;;;0.94;100.00;100380.66;5073101;28;20266;-55
2022/01/27 06:22:43;;;;;;;;;;;1.60;96.80;;;0.62;100.00;100338.00;5073189;28;19916;-55
2022/01/27 06:25:09;;;;;;;;;;;1.60;96.70;;;0.81;100.00;100399.50;5055590;28;19916;-55
2022/01/27 06:27:34;;;;;;;;;;;1.50;96.60;;;0.88;100.00;100390.91;5073545;28;19961;-56
2022/01/27 06:30:00;;;;;;;;;;;1.50;96.60;;;0.95;100.00;100400.94;5072881;28;19924;-56
2022/01/27 06:32:26;;;;;;;;;;;1.50;96.70;;;0.95;100.00;100410.28;5055493;28;19916;-56
2022/01/27 06:34:52;;;;;;;;;;;1.50;96.70;;;1.06;100.00;100404.16;5076560;28;19969;-56
2022/01/27 06:37:17;;;;;;;;;;;1.60;96.70;;;0.94;100.00;100404.34;5059313;28;20391;-56
2022/01/27 06:39:43;;;;;;;;;;;1.60;96.80;;;0.96;100.00;100391.63;5059158;28;19920;-56
2022/01/27 06:42:09;;;;;;;;;;;1.50;96.40;;;1.03;100.00;100401.66;5076115;28;19916;-56
2022/01/27 06:44:34;;;;;;;;;;;1.50;96.40;;;1.06;100.00;100388.06;5076952;28;19916;-57
2022/01/27 06:47:00;;;;;;;;;;;1.50;96.40;;;0.70;100.00;100354.81;5042871;28;19913;-56
2022/01/27 06:49:26;;;;;;;;;;;1.50;96.40;;;0.84;100.00;100367.25;5076773;28;20366;-56
2022/01/27 06:51:52;;;;;;;;;;;1.50;96.30;;;0.92;100.00;100403.53;5076779;28;20285;-56
2022/01/27 06:54:18;;;;;;;;;;;1.50;96.10;;;0.52;100.00;100349.16;5076839;28;20350;-56
2022/01/27 06:56:44;;;;;;;;;;;1.50;96.10;;;0.91;100.00;100393.41;5076529;28;19916;-56
2022/01/27 06:59:10;;;;;;;;;;;1.50;96.20;;;0.66;100.00;100337.91;5058944;28;20289;-56
2022/01/27 07:01:36;;;;;;;;;;;1.50;96.30;;;1.09;100.00;100395.63;5076558;28;20011;-56
2022/01/27 07:04:02;;;;;;;;;;;1.50;96.30;;;1.04;100.00;100407.59;5076630;28;19970;-56
2022/01/27 07:06:28;;;;;;;;;;;1.50;96.30;;;0.76;100.00;100372.47;5076799;28;19916;-56
2022/01/27 07:08:54;;;;;;;;;;;1.50;96.40;;;0.96;100.00;100419.59;5058523;28;19939;-56
2022/01/27 07:11:20;;;;;;;;;;;1.50;96.20;;;0.87;100.00;100420.56;5076552;28;19913;-56
2022/01/27 07:13:45;;;;;;;;;;;1.40;96.20;;;0.87;100.00;100417.19;5058745;28;19961;-56
2022/01/27 07:16:12;;;;;;;;;;;1.40;96.30;;;0.89;100.00;100420.56;5076159;28;19917;-56
2022/01/27 07:18:38;;;;;;;;;;;1.50;96.30;;;0.95;100.00;100431.44;5076314;28;19916;-56
2022/01/27 07:21:04;;;;;;;;;;;1.40;96.10;;;1.00;100.00;100432.19;5076394;28;19927;-56
2022/01/27 07:23:29;;;;;;;;;;;1.40;96.20;;;0.80;100.00;100420.69;5076389;28;20003;-56
2022/01/27 07:25:55;;;;;;;;;;;1.40;96.10;;;0.85;100.00;100413.81;5076161;28;19942;-56
2022/01/27 07:28:21;;;;;;;;;;;1.40;96.10;;;0.84;100.00;100429.94;5076268;28;20003;-56
2022/01/27 07:30:47;;;;;;;;;;;1.40;96.20;;;0.55;100.00;100395.69;5057788;28;19926;-56
2022/01/27 07:33:12;;;;;;;;;;;1.40;96.10;;;0.87;100.00;100445.13;5076305;28;20328;-56
2022/01/27 07:35:38;;;;;;;;;;;1.40;95.90;;;0.64;100.00;100420.09;5057872;28;19939;-57
2022/01/27 07:38:05;;;;;;;;;;;1.40;95.90;;;0.37;100.00;100429.78;5076015;28;19916;-56
2022/01/27 07:40:30;;;;;;;;;;;1.30;95.60;;;0.73;100.00;100448.75;5076129;28;20009;-56
2022/01/27 07:42:57;;;;;;;;;;;1.30;95.60;;;0.64;100.00;100433.63;5057938;28;20289;-56
2022/01/27 07:45:22;;;;;;;;;;;1.20;95.70;;;0.70;100.00;100438.59;5074699;28;19923;-56
2022/01/27 07:47:48;;;;;;;;;;;1.30;95.90;;;0.79;100.00;100439.34;5075434;28;19916;-61
2022/01/27 07:50:14;;;;;;;;;;;1.30;95.80;;;0.55;100.00;100426.16;5075809;28;19923;-61
2022/01/27 07:52:41;;;;;;;;;;;1.30;95.80;;;0.74;100.00;100419.09;5075668;28;19924;-62
2022/01/27 07:55:08;;;;;;;;;;;1.30;95.80;;;0.87;100.00;100422.25;5041656;28;19917;-62
2022/01/27 07:57:34;;;;;;;;;;;1.30;95.90;;;0.72;100.00;100424.19;5074594;28;19931;-61
2022/01/27 08:00:00;;;;;;;;;;;1.30;95.80;;;0.91;100.00;100427.25;5075712;28;19921;-61
2022/01/27 08:02:25;;;;;;;;;;;1.30;95.70;;;0.82;100.00;100427.44;5075583;28;19916;-63
2022/01/27 08:04:51;;;;;;;;;;;1.40;95.70;;;0.54;100.00;100373.69;5075355;28;19917;-62
2022/01/27 08:07:17;;;;;;;;;;;1.40;95.60;;;0.84;100.00;100438.38;5057624;28;19923;-63
2022/01/27 08:09:43;;;;;;;;;;;1.40;95.50;;;0.68;100.00;100429.34;5075117;28;19986;-62
2022/01/27 08:12:09;;;;;;;;;;;1.40;95.30;;;0.43;100.00;100379.78;5075506;28;19922;-60
2022/01/27 08:14:34;;;;;;;;;;;1.40;95.10;;;0.76;100.00;100427.50;5057540;28;19916;-60
2022/01/27 08:17:00;;;;;;;;;;;1.30;95.00;;;0.70;100.00;100404.75;5057257;28;19923;-61
2022/01/27 08:19:26;;;;;;;;;;;1.30;95.00;;;0.69;100.00;100418.31;5057423;28;19920;-61
2022/01/27 08:21:51;;;;;;;;;;;1.30;95.00;;;0.49;100.00;100380.56;5074969;28;19916;-63
2022/01/27 08:24:18;;;;;;;;;;;1.30;94.90;;;0.83;100.00;100411.31;5075257;28;19917;-63
2022/01/27 08:26:46;;;;;;;;;;;1.30;94.90;;;0.48;100.00;100332.31;5057178;28;19921;-63
2022/01/27 08:29:22;;;;;;;;;;;1.40;95.00;;;0.71;100.00;100353.94;5075088;28;19920;-61
2022/01/27 08:32:01;;;;;;;;;;;1.40;94.90;;;0.69;100.00;100364.97;5074898;28;20334;-60
2022/01/27 08:34:41;;;;;;;;;;;1.40;94.90;;;0.96;100.00;100415.34;5075092;28;19920;-61
2022/01/27 08:37:07;;;;;;;;;;;1.40;94.90;;;0.73;100.00;100403.03;5058847;28;19913;-62
2022/01/27 08:39:33;;;;;;;;;;;1.40;94.90;;;0.43;100.00;100349.31;5074686;28;20381;-62
2022/01/27 08:41:59;;;;;;;;;;;1.40;94.90;;;0.72;100.00;100364.94;5056603;28;19924;-60
2022/01/27 08:44:24;;;;;;;;;;;1.40;94.90;;;0.83;100.00;100395.22;5074965;28;19972;-62
2022/01/27 08:46:50;;;;;;;;;;;1.40;94.90;;;0.99;100.00;100400.03;5023609;28;20393;-62
2022/01/27 08:49:19;;;;;;;;;;;1.40;95.00;;;0.98;100.00;100393.28;5074700;28;19916;-62
2022/01/27 08:51:44;;;;;;;;;;;1.40;95.00;;;0.60;100.00;100348.19;5074009;28;20378;-62
2022/01/27 08:54:10;;;;;;;;;;;1.50;95.00;;;1.06;100.00;100394.00;5074773;28;19912;-61
2022/01/27 08:56:36;;;;;;;;;;;1.50;95.00;;;0.66;100.00;100309.19;5074193;28;19970;-61
2022/01/27 08:59:02;;;;;;;;;;;1.60;95.10;;;1.08;100.00;100397.31;5074362;28;20038;-62
2022/01/27 09:01:28;;;;;;;;;;;1.60;94.80;;;1.19;100.00;100394.59;5074458;28;19920;-62
2022/01/27 09:03:53;;;;;;;;;;;1.60;94.80;;;1.25;100.00;100389.41;5056353;28;19927;-62
2022/01/27 09:06:19;;;;;;;;;;;1.60;94.90;;;1.18;100.00;100387.84;5056326;28;19912;-62
2022/01/27 09:08:48;;;;;;;;;;;1.70;95.00;;;0.92;100.00;100340.03;5074134;28;20051;-63
2022/01/27 09:11:14;;;;;;;;;;;1.70;94.90;;;0.99;100.00;100316.16;5074389;28;19921;-62
2022/01/27 09:13:41;;;;;;;;;;;1.80;95.00;;;1.44;100.00;100384.81;5073835;28;19916;-61
2022/01/27 09:16:07;;;;;;;;;;;1.80;95.10;;;1.41;100.00;100373.00;5056338;28;19966;-62
2022/01/27 09:18:33;;;;;;;;;;;1.90;95.20;;;1.39;100.00;100368.84;5039677;28;19916;-62
2022/01/27 09:21:02;;;;;;;;;;;1.90;94.90;;;1.45;100.00;100372.09;5073628;28;19916;-62
2022/01/27 09:23:28;;;;;;;;;;;1.90;95.10;;;1.27;100.00;100381.75;5074099;28;19912;-61
2022/01/27 09:26:01;;;;;;;;;;;1.90;94.80;;;1.30;100.00;100358.84;5073599;28;19974;-62
2022/01/27 09:28:26;;;;;;;;;;;2.00;94.80;;;1.41;100.00;100361.97;5057285;28;19920;-60
2022/01/27 09:30:52;;;;;;;;;;;2.00;95.10;;;1.52;100.00;100382.97;5052323;28;19920;-61
2022/01/27 09:33:18;;;;;;;;;;;2.00;95.10;;;1.64;100.00;100376.81;5054014;28;19991;-60
2022/01/27 09:35:45;;;;;;;;;;;2.00;95.20;;;1.48;100.00;100368.66;5053084;28;20085;-62
2022/01/27 09:38:11;;;;;;;;;;;2.10;95.20;;;1.61;100.00;100377.72;5053539;28;19924;-60
2022/01/27 09:40:37;;;;;;;;;;;2.10;95.20;;;1.44;100.00;100364.47;5053886;28;19921;-60
2022/01/27 09:43:04;;;;;;;;;;;2.10;95.10;;;0.84;100.00;100376.56;5053543;28;20259;-61
2022/01/27 09:45:30;;;;;;;;;;;2.00;94.60;;;0.48;100.00;100317.09;5053767;28;20316;-60
2022/01/27 09:48:05;;;;;;;;;;;1.80;94.40;;;1.13;100.00;100369.31;5053464;28;19927;-60
2022/01/27 09:50:46;;;;;;;;;;;1.80;94.70;;;1.41;100.00;100354.34;5053751;28;20023;-62
2022/01/27 09:53:12;;;;;;;;;;;1.80;95.30;;;1.49;100.00;100347.41;5053949;28;19970;-61
2022/01/27 09:55:38;;;;;;;;;;;1.90;95.60;;;1.28;100.00;100355.47;5053641;28;19921;-61
2022/01/27 09:58:05;;;;;;;;;;;2.00;95.70;;;1.30;100.00;100358.84;5053197;28;19916;-61
2022/01/27 10:00:31;;;;;;;;;;;2.00;95.10;;;1.68;100.00;100356.38;5052144;28;20278;-63
2022/01/27 10:03:01;;;;;;;;;;;2.10;95.10;;;1.66;100.00;100337.75;5053148;28;19932;-61
2022/01/27 10:05:27;;;;;;;;;;;2.10;95.00;;;1.87;100.00;100356.81;5053533;28;20281;-62
2022/01/27 10:07:53;;;;;;;;;;;2.20;95.10;;;1.88;100.00;100356.78;5052313;28;19921;-63
2022/01/27 10:10:19;;;;;;;;;;;2.30;95.20;;;1.97;100.00;100342.19;5035746;28;19924;-61
2022/01/27 10:12:50;;;;;;;;;;;2.30;95.20;;;1.73;100.00;100333.38;5053532;28;19932;-62
2022/01/27 10:15:19;;;;;;;;;;;2.40;95.00;;;1.63;100.00;100286.13;5053471;28;19921;-63
2022/01/27 10:18:03;;;;;;;;;;;2.40;94.40;;;1.97;100.00;100339.66;5052286;28;19924;-63
2022/01/27 10:20:29;;;;;;;;;;;2.50;94.40;;;1.73;100.00;100293.50;5053377;28;20023;-63
2022/01/27 10:23:12;;;;;;;;;;;2.50;94.30;;;1.95;100.00;100324.41;5052940;28;19917;-63
2022/01/27 10:25:46;;;;;;;;;;;2.60;94.40;;;1.75;100.00;100289.22;5053474;28;19954;-63
2022/01/27 10:28:39;;;;;;;;;;;2.60;94.00;;;2.09;100.00;100345.31;5053527;28;19921;-64
2022/01/27 10:31:07;;;;;;;;;;;2.70;94.10;;;1.22;100.00;100206.47;5067922;28;19924;-62
2022/01/27 10:33:54;;;;;;;;;;;2.70;94.10;;;2.19;100.00;100336.59;5073429;28;19931;-64
2022/01/27 10:36:26;;;;;;;;;;;2.70;94.20;;;2.23;100.00;100339.88;5073931;28;20052;-63
2022/01/27 10:38:54;;;;;;;;;;;2.70;94.60;;;2.27;100.00;100324.53;5073043;28;20472;-61
2022/01/27 10:41:21;;;;;;;;;;;2.70;94.60;;;1.96;100.00;100276.91;5073189;28;19916;-63
2022/01/27 10:43:47;;;;;;;;;;;2.80;94.70;;;2.38;100.00;100326.81;5055504;28;19948;-60
2022/01/27 10:46:28;;;;;;;;;;;2.90;94.70;;;2.40;100.00;100327.59;5072855;28;19923;-61
2022/01/27 10:49:09;;;;;;;;;;;2.90;94.60;;;2.16;100.00;100292.53;5056980;28;20358;-61
2022/01/27 10:51:43;;;;;;;;;;;3.00;94.80;;;1.89;100.00;100238.03;5073031;28;19920;-61
2022/01/27 10:54:24;;;;;;;;;;;3.00;94.60;;;2.47;100.00;100321.47;5055829;28;19925;-61
2022/01/27 10:56:50;;;;;;;;;;;3.00;94.70;;;2.53;100.00;100307.78;5057266;28;19917;-62
2022/01/27 10:59:18;;;;;;;;;;;3.10;94.90;;;2.00;100.00;100227.59;5073029;28;20254;-61
2022/01/27 11:01:48;;;;;;;;;;;3.20;94.80;;;2.64;100.00;100319.34;5055168;28;19924;-62
2022/01/27 11:04:14;;;;;;;;;;;3.20;94.60;;;2.47;100.00;100280.72;5072789;28;20030;-62
2022/01/27 11:06:54;;;;;;;;;;;3.20;94.60;;;2.73;100.00;100315.75;5072970;28;19920;-62
2022/01/27 11:09:20;;;;;;;;;;;3.30;94.70;;;2.68;100.00;100304.84;5073160;28;19916;-62
2022/01/27 11:11:48;;;;;;;;;;;3.30;94.70;;;2.70;100.00;100310.75;5055262;28;20331;-62
2022/01/27 11:14:14;;;;;;;;;;;3.30;94.70;;;2.79;100.00;100307.97;5072735;28;20365;-65
2022/01/27 11:16:42;;;;;;;;;;;3.30;94.70;;;2.57;100.00;100277.09;5072652;28;19921;-63
2022/01/27 11:22:02;;;;;;;;;;;3.30;94.70;;;2.73;100.00;100307.25;5076371;28;19927;-62
2022/01/27 11:24:44;;;;;;;;;;;3.40;94.60;;;2.63;100.00;100302.44;5076518;28;19973;-62
2022/01/27 11:27:10;;;;;;;;;;;3.30;94.10;;;2.68;100.00;100287.84;5060130;28;19969;-62
2022/01/27 11:29:40;;;;;;;;;;;3.30;94.20;;;2.39;100.00;100246.16;5041551;28;19921;-62
2022/01/27 11:32:16;;;;;;;;;;;3.30;94.20;;;2.74;100.00;100294.50;5041589;28;19923;-64
2022/01/27 11:34:51;;;;;;;;;;;3.30;94.20;;;2.73;100.00;100297.06;5058174;28;20011;-64
2022/01/27 11:37:32;;;;;;;;;;;3.30;94.30;;;2.62;100.00;100259.16;5076016;28;20277;-63
2022/01/27 11:40:05;;;;;;;;;;;3.40;94.30;;;2.77;100.00;100288.50;5058052;28;20007;-64
2022/01/27 11:42:34;;;;;;;;;;;3.40;94.20;;;2.77;100.00;100278.28;5076036;28;20461;-64
2022/01/27 11:45:19;;;;;;;;;;;3.40;94.20;;;2.76;100.00;100271.53;5075750;28;19920;-63
2022/01/27 11:48:06;;;;;;;;;;;3.40;94.20;;;2.74;100.00;100270.72;5075858;28;19916;-63
2022/01/27 11:50:38;;;;;;;;;;;3.40;94.20;;;2.77;100.00;100263.00;5075586;28;20369;-63
2022/01/27 11:53:08;;;;;;;;;;;3.40;94.30;;;2.85;100.00;100256.00;5092414;28;19966;-63
2022/01/27 11:55:33;;;;;;;;;;;3.40;94.30;;;2.54;100.00;100197.38;5096454;28;19973;-62
2022/01/27 11:58:00;;;;;;;;;;;3.40;94.30;;;2.89;100.00;100242.28;5095764;28;19920;-63
2022/01/27 12:00:28;;;;;;;;;;;3.40;94.30;;;2.66;100.00;100190.22;5096508;28;19924;-62
2022/01/27 12:02:56;;;;;;;;;;;3.60;94.30;;;3.04;100.00;100231.69;5095454;28;19931;-63
2022/01/27 12:05:23;;;;;;;;;;;3.60;94.30;;;3.13;100.00;100230.59;5077573;28;19916;-62
2022/01/27 12:08:13;;;;;;;;;;;3.70;94.20;;;3.17;100.00;100220.25;5077752;28;20335;-62
2022/01/27 12:10:58;;;;;;;;;;;3.70;94.10;;;3.23;100.00;100216.69;5077320;28;19919;-61
2022/01/27 12:16:26;;;;;;;;;;;3.90;94.10;;;3.42;100.00;100222.91;5095354;28;20069;-63
2022/01/27 12:19:07;;;;;;;;;;;4.00;94.20;;;3.45;100.00;100220.28;5095708;28;20297;-63